地図

経路データ

SID SEASON NUMBER BASIN SUBBASIN NAME ISO_TIME NATURE LAT LON WMO_WIND WMO_PRES WMO_AGENCY TRACK_TYPE DIST2LAND LANDFALL IFLAG USA_AGENCY USA_ATCF_ID USA_LAT USA_LON USA_RECORD USA_STATUS USA_WIND USA_PRES USA_SSHS USA_R34_NE USA_R34_SE USA_R34_SW USA_R34_NW USA_R50_NE USA_R50_SE USA_R50_SW USA_R50_NW USA_R64_NE USA_R64_SE USA_R64_SW USA_R64_NW USA_POCI USA_ROCI USA_RMW USA_EYE TOKYO_LAT TOKYO_LON TOKYO_GRADE TOKYO_WIND TOKYO_PRES TOKYO_R50_DIR TOKYO_R50_LONG TOKYO_R50_SHORT TOKYO_R30_DIR TOKYO_R30_LONG TOKYO_R30_SHORT TOKYO_LAND CMA_LAT CMA_LON CMA_CAT CMA_WIND CMA_PRES HKO_LAT HKO_LON HKO_CAT HKO_WIND HKO_PRES NEWDELHI_LAT NEWDELHI_LON NEWDELHI_GRADE NEWDELHI_WIND NEWDELHI_PRES NEWDELHI_CI NEWDELHI_DP NEWDELHI_POCI REUNION_LAT REUNION_LON REUNION_TYPE REUNION_WIND REUNION_PRES REUNION_TNUM REUNION_CI REUNION_RMW REUNION_R34_NE REUNION_R34_SE REUNION_R34_SW REUNION_R34_NW REUNION_R50_NE REUNION_R50_SE REUNION_R50_SW REUNION_R50_NW REUNION_R64_NE REUNION_R64_SE REUNION_R64_SW REUNION_R64_NW BOM_LAT BOM_LON BOM_TYPE BOM_WIND BOM_PRES BOM_TNUM BOM_CI BOM_RMW BOM_R34_NE BOM_R34_SE BOM_R34_SW BOM_R34_NW BOM_R50_NE BOM_R50_SE BOM_R50_SW BOM_R50_NW BOM_R64_NE BOM_R64_SE BOM_R64_SW BOM_R64_NW BOM_ROCI BOM_POCI BOM_EYE BOM_POS_METHOD BOM_PRES_METHOD NADI_LAT NADI_LON NADI_CAT NADI_WIND NADI_PRES WELLINGTON_LAT WELLINGTON_LON WELLINGTON_WIND WELLINGTON_PRES DS824_LAT DS824_LON DS824_STAGE DS824_WIND DS824_PRES TD9636_LAT TD9636_LON TD9636_STAGE TD9636_WIND TD9636_PRES TD9635_LAT TD9635_LON TD9635_WIND TD9635_PRES TD9635_ROCI NEUMANN_LAT NEUMANN_LON NEUMANN_CLASS NEUMANN_WIND NEUMANN_PRES MLC_LAT MLC_LON MLC_CLASS MLC_WIND MLC_PRES USA_GUST BOM_GUST BOM_GUST_PER REUNION_GUST REUNION_GUST_PER USA_SEAHGT USA_SEARAD_NE USA_SEARAD_SE USA_SEARAD_SW USA_SEARAD_NW STORM_SPEED STORM_DIR
1928167N24088 1928 32 NI BB NOT_NAMED 1928-06-15 00:00:00 TS 23.5000 87.8000 main 0 0 _________O____ -1 23.5000 87.8000 TC 30 1 84
1928167N24088 1928 32 NI BB NOT_NAMED 1928-06-15 03:00:00 TS 23.5067 87.8683 main 0 0 _________PO___ -1 23.5100 87.9025 TC 30 23.5000 87.8000 1 1 93
1928167N24088 1928 32 NI BB NOT_NAMED 1928-06-15 06:00:00 TS 23.4937 87.9500 main 0 0 _________OP___ -1 23.5000 88.0000 TC 30 23.4843 87.8749 1 2 107
1928167N24088 1928 32 NI BB NOT_NAMED 1928-06-15 09:00:00 TS 23.4606 88.0357 main 0 0 _________PP___ -1 23.4575 88.0925 TC 30 23.4649 87.9599 1 2 114
1928167N24088 1928 32 NI BB NOT_NAMED 1928-06-15 12:00:00 TS 23.4190 88.1324 main 0 0 _________OP___ -1 23.4000 88.2000 TC 30 23.4380 88.0649 1 2 112
1928167N24088 1928 32 NI BB NOT_NAMED 1928-06-15 15:00:00 TS 23.3750 88.2675 main 0 0 _________PO___ -1 23.3500 88.3350 TC 30 23.4000 88.2000 1 3 109
1928167N24088 1928 32 NI BB NOT_NAMED 1928-06-15 18:00:00 TS 23.3246 88.4349 main 0 0 _________OP___ -1 23.3000 88.5000 TC 30 23.3492 88.3698 1 4 108
1928167N24088 1928 32 NI BB NOT_NAMED 1928-06-15 21:00:00 TS 23.2676 88.6364 main 0 0 _________PP___ -1 23.2426 88.7150 TC 30 23.2927 88.5577 1 4 106
1928167N24088 1928 32 NI BB NOT_NAMED 1928-06-16 00:00:00 TS 23.2199 88.8208 main 0 0 _________OP___ -1 23.2000 88.9000 TC 30 23.2398 88.7417 1 3 105
1928167N24088 1928 32 NI BB NOT_NAMED 1928-06-16 03:00:00 TS 23.1962 88.9325 main 0 0 _________PO___ -1 23.1924 88.9650 TC 30 23.2000 88.9000 1 2 99
1928167N24088 1928 32 NI BB NOT_NAMED 1928-06-16 06:00:00 TS 23.1948 89.0018 main 0 0 _________OP___ -1 23.2000 89.0000 TC 30 23.1896 89.0036 1 1 90
1928167N24088 1928 32 NI BB NOT_NAMED 1928-06-16 09:00:00 TS 23.1962 89.0862 main 0 0 _________PP___ -1 23.2000 89.0925 TC 30 23.1924 89.0799 1 2 88
1928167N24088 1928 32 NI BB NOT_NAMED 1928-06-16 12:00:00 TS 23.1995 89.1706 main 0 0 _________OP___ -1 23.2000 89.2000 TC 30 23.1990 89.1412 1 2 87
1928167N24088 1928 32 NI BB NOT_NAMED 1928-06-16 15:00:00 TS 23.2038 89.2537 main 0 0 _________PO___ -1 23.2075 89.3075 TC 30 23.2000 89.2000 1 2 90
1928167N24088 1928 32 NI BB NOT_NAMED 1928-06-16 18:00:00 TS 23.1992 89.3579 main 0 0 _________OP___ -1 23.2000 89.4000 TC 30 23.1984 89.3158 1 2 98
1928167N24088 1928 32 NI BB NOT_NAMED 1928-06-16 21:00:00 TS 23.1800 89.4526 main 0 0 _________PP___ -1 23.1725 89.4800 TC 30 23.1874 89.4252 1 1 118
1928167N24088 1928 32 NI BB NOT_NAMED 1928-06-17 00:00:00 TS 23.1289 89.4986 main 0 0 _________OP___ -1 23.1000 89.5000 TC 30 23.1577 89.4971 1 2 171
1928167N24088 1928 32 NI BB NOT_NAMED 1928-06-17 03:00:00 TS 23.0287 89.4725 main 0 0 _________PO___ -1 22.9574 89.4450 TC 30 23.1000 89.5000 1 3 210
1928167N24088 1928 32 NI BB NOT_NAMED 1928-06-17 06:00:00 TS 22.8856 89.3522 main 0 0 _________OP___ -1 22.8000 89.3000 TC 30 22.9713 89.4045 1 4 226
1928167N24088 1928 32 NI BB NOT_NAMED 1928-06-17 09:00:00 TS 22.7450 89.1558 main 0 0 _________PP___ -1 22.6700 89.0724 TC 30 22.8201 89.2392 1 5 239
1928167N24088 1928 32 NI BB NOT_NAMED 1928-06-17 12:00:00 TS 22.6419 88.9147 main 0 0 _________OP___ -1 22.6000 88.8000 TC 30 22.6838 89.0294 1 5 253
1928167N24088 1928 32 NI BB NOT_NAMED 1928-06-17 15:00:00 TS 22.6100 88.6713 main 0 0 _________PO___ -1 22.6200 88.5426 TC 30 22.6000 88.8000 1 4 272
1928167N24088 1928 32 NI BB NOT_NAMED 1928-06-17 18:00:00 TS 22.6588 88.4449 main 0 0 _________OP___ -1 22.7000 88.3000 TC 30 22.6175 88.5897 1 4 288
1928167N24088 1928 32 NI BB NOT_NAMED 1928-06-17 21:00:00 TS 22.7450 88.2327 main 0 0 _________PP___ -1 22.7999 88.1000 TC 30 22.6900 88.3654 1 4 295
1928167N24088 1928 32 NI BB NOT_NAMED 1928-06-18 00:00:00 TS 22.8462 88.0167 main 0 0 _________OP___ -1 22.9000 87.9000 TC 30 22.7925 88.1334 1 5 293
1928167N24088 1928 32 NI BB NOT_NAMED 1928-06-18 03:00:00 TS 22.9250 87.7750 main 0 0 _________PO___ -1 22.9500 87.6499 TC 30 22.9000 87.9000 1 5 288
1928167N24088 1928 32 NI BB NOT_NAMED 1928-06-18 06:00:00 TS 22.9895 87.5355 main 0 0 _________OP___ -1 23.0000 87.4000 TC 30 22.9790 87.6709 1 4 290
1928167N24088 1928 32 NI BB NOT_NAMED 1928-06-18 09:00:00 TS 23.0787 87.3175 main 0 0 _________PP___ -1 23.0999 87.1925 TC 30 23.0574 87.4425 1 4 294
1928167N24088 1928 32 NI BB NOT_NAMED 1928-06-18 12:00:00 TS 23.1661 87.1089 main 0 0 _________OP___ -1 23.2000 87.0000 TC 30 23.1321 87.2178 1 4 291
1928167N24088 1928 32 NI BB NOT_NAMED 1928-06-18 15:00:00 TS 23.2287 86.9000 main 0 0 _________PO___ -1 23.2575 86.7999 TC 30 23.2000 87.0000 1 4 287
1928167N24088 1928 32 NI BB NOT_NAMED 1928-06-18 18:00:00 TS 23.2765 86.7093 main 0 0 _________OP___ -1 23.3000 86.6000 TC 30 23.2588 86.7913 1 4 285
1928167N24088 1928 32 NI BB NOT_NAMED 1928-06-18 21:00:00 TS 23.3251 86.5141 main 0 0 _________PP___ -1 23.3476 86.4000 TC 30 23.3102 86.5900 1 4 285
1928167N24088 1928 32 NI BB NOT_NAMED 1928-06-19 00:00:00 TS 23.3709 86.3292 main 0 0 _________OP___ -1 23.4000 86.2000 TC 30 23.3564 86.3938 1 3 285
1928167N24088 1928 32 NI BB NOT_NAMED 1928-06-19 03:00:00 NR 23.4000 86.2000 main 0 __________O___ -1 TC 23.4000 86.2000 1 2 283

IBTrACS Databaseについて

本データベースは、米国NOAAが公開する1842年以降の世界の熱帯低気圧のベストトラックデータアーカイブInternational Best Track Archive for Climate Stewardship (IBTrACS)を、ウェブで閲覧しやすい形式に変換したものです。

最終更新日:2021-11-26